Dinero, TX

1:07 AM CDT on April 21, 2015 (GMT -0500)
Sunset Villas | | Change Station
CLOSE
Current Station
Personal Weather Station
Location: Mathis, TX
Elevation: 120 ft
Nearby Weather Stations

Elev 120 ft 28.20 °N, 97.90 °W | Updated 2 seconds ago

Partly Cloudy
Partly Cloudy
62.3 °F
Feels Like 62.3 °F
N
0.0
Wind Variable Wind from East
Gusts 0.0 mph

Today
High -- | Low -- °F
--% Chance of Precip.
Yesterday
High -- | Low -- °F
Precip. -- in
7:00 AM 8:00 PM
Waxing Crescent, 8% visible
Pressure 30.00 in
Visibility 10.0 miles
Clouds Scattered Clouds 12000 ft
Dew Point 61 °F
Humidity 96%
Rainfall 0.00 in
Snow Depth Not available.
UV 0 out of 12
Pollen 7.50 out of 12
Air Quality Not available.
Flu Activity Local Activity
METAR KBEA 210555Z AUTO 23003KT 10SM SCT120 17/15 A3000 RMK AO2 T01660153 10187 20159 402270159

More Conditions Fewer Conditions

Pressure 30.00 in
Visibility 10.0 miles
Clouds Scattered Clouds 12000 ft
Dew Point 61 °F
Humidity 96%
Rainfall 0.00 in
Snow Depth Not available.
UV 0 out of 12
Pollen 7.50 out of 12
Air Quality Not available.
Flu Activity Local Activity
METAR KBEA 210555Z AUTO 23003KT 10SM SCT120 17/15 A3000 RMK AO2 T01660153 10187 20159 402270159

More Conditions Fewer Conditions

Nowcast | as of 11:20 PM CDT on April 20, 2015

Through 200 am CDT Tuesday morning...patchy light rain and isolated showers are expected across portions of south Texas. A brief thunderstorm...with cloud to surface lightning...may also develop. Generally only a trace of precipitation is expected. However...a few hundredths of an inch of rainfall may occur in associated with isolated showers and thunderstorms.

×

10-Day Weather Forecast

Almanac

Astronomy

Apr. 21, 2015 Rise Set
Actual Time
Civil Twilight
Nautical Twilight
Astronomical Twilight
Moon
Length of Visible Light
Length of Day
Tomorrow will be .
, % of the Moon is Illuminated

Today's Extremes

State Highs State Lows

Community

WunderPhotos

Upload Photos

1,815,318 photos uploaded!

WunderBlogs® & News

Nearby

Air Quality

  Air Quality AQ Index Pollutant
Not available.

Snow Depth

Station Depth Elevation

Earthquake Activity

City Distance Mag. Time & Date
Minimum magnitude displayed is 2.5.

Coastal Water Temperatures

Place Temperature

Stations

Nearby Weather Stations

Station Location Temp. Windchill Dew Point Humidity Wind Precip. Elev Updated Type